Time;durP1;ratioP1;P1;durP2;ratioP2;P2;SDS_P1;SDS_P2;PMS_P1;PMS_P2;Temp;Humidity;BMP_temperature;BMP_pressure;BME280_temperature;BME280_humidity;BME280_pressure;Samples;Min_cycle;Max_cycle;Signal;HPM_P1;HPM_P2
2021/07/21 00:01:15;;;;;;;;;;;;;;;25.41;52.07;101884.50;2210803;39;114865;-54
2021/07/21 00:02:47;;;;;;;;;;;;;;;25.40;51.82;101878.00;2216353;39;113851;-54
2021/07/21 00:04:20;;;;;;;;;;;;;;;25.40;51.83;101882.81;2211835;39;115385;-54
2021/07/21 00:05:59;;;;;;;;;;;;;;;25.41;52.21;101878.84;2210420;39;113821;-54
2021/07/21 00:07:31;;;;;;;;;;;;;;;25.40;52.23;101880.00;2211053;39;115112;-54
2021/07/21 00:09:04;;;;;;;;;;;;;;;25.40;51.90;101886.50;2211347;39;114854;-54
2021/07/21 00:10:36;;;;;;;;;;;;;;;25.40;52.04;101883.66;2209910;39;114963;-54
2021/07/21 00:13:44;;;;;;;;;;;;;;;25.41;52.32;101878.84;2209010;39;114000;-54
2021/07/21 00:15:16;;;;;;;;;;;;;;;25.42;52.09;101877.69;2209316;39;114272;-54
2021/07/21 00:21:32;;;;;;;;;;;;;;;25.41;52.35;101878.84;2204312;39;114612;-54
2021/07/21 00:23:04;;;;;;;;;;;;;;;25.43;52.83;101885.03;2209777;39;115648;-54
2021/07/21 00:24:36;;;;;;;;;;;;;;;25.41;52.52;101879.69;2210942;39;114406;-54
2021/07/21 00:26:08;;;;;;;;;;;;;;;25.42;52.45;101870.06;2210574;39;115483;-54
2021/07/21 00:27:41;;;;;;;;;;;;;;;25.42;52.96;101872.88;2211143;39;115514;-54
2021/07/21 00:29:13;;;;;;;;;;;;;;;25.43;52.59;101868.91;2209633;39;115923;-54
2021/07/21 00:30:45;;;;;;;;;;;;;;;25.42;53.09;101872.88;2210983;39;115960;-54
2021/07/21 00:32:17;;;;;;;;;;;;;;;25.42;52.69;101870.06;2217642;39;115943;-54
2021/07/21 00:33:49;;;;;;;;;;;;;;;25.42;52.66;101878.53;2212037;39;115032;-54
2021/07/21 00:35:21;;;;;;;;;;;;;;;25.43;53.02;101880.22;2211099;39;115491;-54
2021/07/21 00:36:53;;;;;;;;;;;;;;;25.42;52.86;101875.72;2210703;39;114698;-54
2021/07/21 00:38:25;;;;;;;;;;;;;;;25.43;53.05;101874.56;2211226;39;115524;-54
2021/07/21 00:39:57;;;;;;;;;;;;;;;25.43;52.80;101870.88;2213215;39;115632;-54
2021/07/21 00:41:30;;;;;;;;;;;;;;;25.43;53.38;101879.38;2212405;39;113754;-54
2021/07/21 00:43:02;;;;;;;;;;;;;;;25.44;53.23;101869.75;2212848;39;114114;-54
2021/07/21 00:44:34;;;;;;;;;;;;;;;25.43;53.50;101870.88;2212406;39;113991;-54
2021/07/21 00:46:06;;;;;;;;;;;;;;;25.45;53.04;101869.41;2211308;39;114383;-54
2021/07/21 00:47:39;;;;;;;;;;;;;;;25.45;53.36;101871.38;2212353;39;113711;-54
2021/07/21 00:49:11;;;;;;;;;;;;;;;25.43;53.33;101868.91;2212446;39;114165;-54
2021/07/21 00:50:43;;;;;;;;;;;;;;;25.44;53.09;101873.38;2212856;39;113844;-54
2021/07/21 00:52:16;;;;;;;;;;;;;;;25.46;53.12;101867.41;2207621;39;113869;-54
2021/07/21 00:53:48;;;;;;;;;;;;;;;25.45;53.32;101868.56;2205353;39;113877;-54
2021/07/21 00:55:20;;;;;;;;;;;;;;;25.46;53.57;101865.44;2208433;39;114019;-54
2021/07/21 00:56:52;;;;;;;;;;;;;;;25.46;53.49;101864.59;2212195;39;114326;-54
2021/07/21 00:58:24;;;;;;;;;;;;;;;25.46;53.23;101862.59;2211684;39;113997;-54
2021/07/21 00:59:57;;;;;;;;;;;;;;;25.45;53.26;101868.56;2212826;39;113604;-54
2021/07/21 01:01:29;;;;;;;;;;;;;;;25.46;53.74;101867.41;2212284;39;113752;-54
2021/07/21 01:03:01;;;;;;;;;;;;;;;25.47;53.56;101872.75;2218100;39;113596;-54
2021/07/21 01:04:35;;;;;;;;;;;;;;;25.48;53.48;101870.78;2214604;39;114894;-54
2021/07/21 01:06:08;;;;;;;;;;;;;;;25.45;53.77;101868.56;2206110;39;115527;-54
2021/07/21 01:07:43;;;;;;;;;;;;;;;25.45;53.98;101871.38;2216419;39;115542;-54
2021/07/21 01:09:16;;;;;;;;;;;;;;;25.46;53.62;101873.06;2214076;39;113998;-54
2021/07/21 01:10:50;;;;;;;;;;;;;;;25.46;54.03;101868.25;2212965;39;115461;-54
2021/07/21 01:12:24;;;;;;;;;;;;;;;25.46;53.76;101873.06;2212052;39;114813;-54
2021/07/21 01:14:00;;;;;;;;;;;;;;;25.47;53.76;101871.94;2212411;39;113836;-54
2021/07/21 01:15:39;;;;;;;;;;;;;;;25.47;53.89;101869.09;2212424;39;113838;-54
2021/07/21 01:17:15;;;;;;;;;;;;;;;25.47;54.26;101872.75;2212171;39;114338;-54
2021/07/21 01:18:51;;;;;;;;;;;;;;;25.49;53.97;101876.09;2212849;39;114872;-54
2021/07/21 01:20:26;;;;;;;;;;;;;;;25.48;54.27;101873.59;2211613;39;114073;-54
2021/07/21 01:22:03;;;;;;;;;;;;;;;25.49;54.29;101878.09;2212779;39;114206;-54
2021/07/21 01:23:38;;;;;;;;;;;;;;;25.48;54.34;101876.44;2212058;39;114925;-54
2021/07/21 01:25:13;;;;;;;;;;;;;;;25.48;54.54;101882.09;2216197;39;115376;-54
2021/07/21 01:26:52;;;;;;;;;;;;;;;25.48;54.58;101884.94;2212713;39;115402;-54
2021/07/21 01:28:28;;;;;;;;;;;;;;;25.49;54.57;101886.56;2212813;39;114941;-54
2021/07/21 01:30:03;;;;;;;;;;;;;;;25.46;54.68;101879.56;2212707;39;114399;-54
2021/07/21 01:31:38;;;;;;;;;;;;;;;25.48;54.70;101890.59;2215781;39;116086;-54
2021/07/21 01:33:11;;;;;;;;;;;;;;;25.47;55.02;101884.09;2211764;39;115607;-54
2021/07/21 01:34:49;;;;;;;;;;;;;;;25.47;54.60;101881.25;2211797;39;114929;-54
2021/07/21 01:36:23;;;;;;;;;;;;;;;25.48;54.48;101882.09;2212878;39;114644;-54
2021/07/21 01:37:58;;;;;;;;;;;;;;;25.48;54.97;101884.94;2206401;39;115562;-54
2021/07/21 01:39:33;;;;;;;;;;;;;;;25.48;55.00;101891.44;2212033;39;115478;-54
2021/07/21 01:41:09;;;;;;;;;;;;;;;25.48;54.91;101884.94;2214165;39;114578;-54
2021/07/21 01:42:42;;;;;;;;;;;;;;;25.49;55.16;101884.59;2212934;39;115335;-54
2021/07/21 01:44:17;;;;;;;;;;;;;;;25.49;55.03;101883.75;2212885;39;115452;-54
2021/07/21 01:45:52;;;;;;;;;;;;;;;25.49;55.12;101889.41;2211491;39;115974;-54
2021/07/21 01:47:25;;;;;;;;;;;;;;;25.49;54.65;101886.56;2214422;39;115374;-54
2021/07/21 01:48:59;;;;;;;;;;;;;;;25.48;55.15;101888.59;2211318;39;114046;-54
2021/07/21 01:50:31;;;;;;;;;;;;;;;25.50;55.10;101888.25;2209643;39;114299;-54
2021/07/21 01:52:06;;;;;;;;;;;;;;;25.49;55.03;101884.59;2210034;39;113924;-54
2021/07/21 01:53:39;;;;;;;;;;;;;;;25.50;55.10;101888.25;2211103;39;113648;-54
2021/07/21 01:55:11;;;;;;;;;;;;;;;25.48;55.26;101888.59;2209498;39;113931;-54
2021/07/21 01:56:45;;;;;;;;;;;;;;;25.49;55.45;101890.25;2208048;39;114105;-54
2021/07/21 01:58:18;;;;;;;;;;;;;;;25.49;55.04;101887.41;2210199;39;114157;-54
2021/07/21 01:59:50;;;;;;;;;;;;;;;25.48;55.17;101885.75;2208762;39;113881;-54
2021/07/21 02:01:24;;;;;;;;;;;;;;;25.48;55.51;101885.75;2204502;39;113797;-54
2021/07/21 02:02:57;;;;;;;;;;;;;;;25.49;55.59;101890.25;2204614;39;113951;-54
2021/07/21 02:04:30;;;;;;;;;;;;;;;25.49;55.12;101887.41;2209444;39;114058;-54
2021/07/21 02:06:03;;;;;;;;;;;;;;;25.49;55.51;101887.41;2211181;39;113638;-54
2021/07/21 02:07:36;;;;;;;;;;;;;;;25.49;55.45;101886.56;2212264;39;114040;-54
2021/07/21 02:09:09;;;;;;;;;;;;;;;25.49;55.29;101889.41;2217424;39;113933;-55
2021/07/21 02:10:41;;;;;;;;;;;;;;;25.51;55.16;101887.09;2208191;39;114843;-54
2021/07/21 02:12:14;;;;;;;;;;;;;;;25.50;55.15;101886.25;2209354;39;114970;-54
2021/07/21 02:13:48;;;;;;;;;;;;;;;25.50;55.25;101893.91;2210692;39;114774;-54
2021/07/21 02:15:20;;;;;;;;;;;;;;;25.50;55.45;101888.25;2210866;39;114763;-54
2021/07/21 02:16:53;;;;;;;;;;;;;;;25.49;55.43;101884.59;2210614;39;115166;-54
2021/07/21 02:18:26;;;;;;;;;;;;;;;25.50;55.40;101891.09;2210593;39;114732;-54
2021/07/21 02:19:58;;;;;;;;;;;;;;;25.49;55.48;101887.41;2206794;39;114850;-54
2021/07/21 02:21:31;;;;;;;;;;;;;;;25.48;55.67;101882.94;2209637;39;114836;-55
2021/07/21 02:23:04;;;;;;;;;;;;;;;25.51;55.88;101884.28;2203651;39;114268;-54
2021/07/21 02:24:36;;;;;;;;;;;;;;;25.50;55.80;101883.44;2205753;39;114834;-54
2021/07/21 02:26:09;;;;;;;;;;;;;;;25.51;55.95;101889.94;2211320;39;114848;-54
2021/07/21 02:27:41;;;;;;;;;;;;;;;25.52;55.80;101888.78;2210667;39;115386;-54
2021/07/21 02:29:13;;;;;;;;;;;;;;;25.51;55.78;101899.25;2211402;39;115018;-54
2021/07/21 02:30:48;;;;;;;;;;;;;;;25.49;56.16;101892.22;2212625;39;113836;-54
2021/07/21 02:32:22;;;;;;;;;;;;;;;25.50;56.23;101891.94;2210987;39;115601;-54
2021/07/21 02:33:56;;;;;;;;;;;;;;;25.50;56.17;101891.09;2210590;39;115552;-54
2021/07/21 02:35:28;;;;;;;;;;;;;;;25.50;56.14;101894.75;2211202;39;115461;-54
2021/07/21 02:37:02;;;;;;;;;;;;;;;25.50;55.81;101894.75;2207148;39;116177;-54
2021/07/21 02:38:34;;;;;;;;;;;;;;;25.48;56.24;101894.25;2210480;39;115551;-54
2021/07/21 02:40:06;;;;;;;;;;;;;;;25.50;56.17;101893.91;2211419;39;115519;-54
2021/07/21 02:41:42;;;;;;;;;;;;;;;25.49;56.61;101895.91;2211378;39;115183;-53
2021/07/21 02:43:14;;;;;;;;;;;;;;;25.49;56.33;101898.72;2209093;39;115529;-54
2021/07/21 02:44:47;;;;;;;;;;;;;;;25.51;56.02;101892.75;2210336;39;114562;-54
2021/07/21 02:46:19;;;;;;;;;;;;;;;25.52;56.61;101902.94;2210869;39;115567;-54
2021/07/21 02:47:52;;;;;;;;;;;;;;;25.49;56.39;101897.88;2207701;39;115588;-65
2021/07/21 02:49:24;;;;;;;;;;;;;;;25.49;56.20;101895.91;2205093;39;114603;-54
2021/07/21 02:50:58;;;;;;;;;;;;;;;25.49;56.52;101887.41;2206730;39;114580;-54
2021/07/21 02:52:31;;;;;;;;;;;;;;;25.51;56.06;101898.41;2210807;39;115820;-54
2021/07/21 02:54:06;;;;;;;;;;;;;;;25.50;56.03;101891.09;2213333;39;115427;-54
2021/07/21 02:55:42;;;;;;;;;;;;;;;25.50;56.45;101885.41;2211759;39;113652;-55
2021/07/21 02:57:16;;;;;;;;;;;;;;;25.50;56.15;101891.94;2210254;39;113864;-54
2021/07/21 02:58:53;;;;;;;;;;;;;;;25.49;55.98;101883.75;2210659;39;113628;-54
2021/07/21 03:00:28;;;;;;;;;;;;;;;25.50;56.18;101885.41;2211410;39;113822;-54
2021/07/21 03:02:02;;;;;;;;;;;;;;;25.48;56.58;101888.59;2206463;39;113989;-53
2021/07/21 03:03:35;;;;;;;;;;;;;;;25.49;56.30;101890.25;2206574;39;113772;-53
2021/07/21 03:05:09;;;;;;;;;;;;;;;25.50;56.14;101889.09;2208119;39;113949;-54
2021/07/21 03:06:41;;;;;;;;;;;;;;;25.48;56.69;101891.44;2213843;39;113993;-54
2021/07/21 03:08:16;;;;;;;;;;;;;;;25.49;56.32;101895.06;2213094;39;113812;-54
2021/07/21 03:09:49;;;;;;;;;;;;;;;25.49;56.52;101890.25;2211027;39;113764;-54
2021/07/21 03:11:23;;;;;;;;;;;;;;;25.48;56.59;101897.09;2210326;39;114567;-54
2021/07/21 03:12:58;;;;;;;;;;;;;;;25.49;56.60;101903.56;2206974;39;113750;-54
2021/07/21 03:14:30;;;;;;;;;;;;;;;25.48;56.74;101902.75;2208348;39;113681;-54
2021/07/21 03:16:03;;;;;;;;;;;;;;;25.49;56.76;101901.56;2213696;39;113679;-54
2021/07/21 03:17:36;;;;;;;;;;;;;;;25.48;56.55;101899.91;2203372;39;114821;-54
2021/07/21 03:19:08;;;;;;;;;;;;;;;25.48;56.81;101899.91;2208737;39;114281;-54
2021/07/21 03:20:41;;;;;;;;;;;;;;;25.46;56.75;101904.19;2214006;39;114882;-54
2021/07/21 03:22:15;;;;;;;;;;;;;;;25.48;56.89;101899.06;2210476;39;114824;-54
2021/07/21 03:23:48;;;;;;;;;;;;;;;25.48;56.75;101905.56;2208406;39;115589;-54
2021/07/21 03:25:21;;;;;;;;;;;;;;;25.48;56.81;101911.22;2210517;39;114121;-54
2021/07/21 03:26:54;;;;;;;;;;;;;;;25.47;56.83;101898.22;2209673;39;114038;-54
2021/07/21 03:28:26;;;;;;;;;;;;;;;25.48;56.44;101908.41;2207081;39;114095;-54
2021/07/21 03:29:59;;;;;;;;;;;;;;;25.47;56.81;101912.38;2210018;39;114936;-54
2021/07/21 03:31:31;;;;;;;;;;;;;;;25.48;56.97;101913.22;2208691;39;114172;-54
2021/07/21 03:33:05;;;;;;;;;;;;;;;25.49;56.94;101910.06;2211467;39;114807;-54
2021/07/21 03:34:39;;;;;;;;;;;;;;;25.47;56.67;101909.56;2210789;39;114758;-54
2021/07/21 03:36:12;;;;;;;;;;;;;;;25.48;56.49;101913.22;2203148;39;115634;-54
2021/07/21 03:37:46;;;;;;;;;;;;;;;25.49;56.55;101912.03;2210727;39;115413;-54
2021/07/21 03:39:18;;;;;;;;;;;;;;;25.47;56.57;101912.38;2210815;39;114582;-54
2021/07/21 03:40:51;;;;;;;;;;;;;;;25.48;56.89;101914.06;2211151;39;115673;-54
2021/07/21 03:42:25;;;;;;;;;;;;;;;25.48;56.74;101910.41;2211275;39;115996;-54
2021/07/21 03:43:57;;;;;;;;;;;;;;;25.46;56.98;101916.34;2211289;39;115805;-54
2021/07/21 03:45:31;;;;;;;;;;;;;;;25.47;57.03;101909.56;2210719;39;115523;-54
2021/07/21 03:47:03;;;;;;;;;;;;;;;25.47;56.67;101915.22;2210232;39;115758;-54
2021/07/21 03:48:36;;;;;;;;;;;;;;;25.48;56.97;101916.06;2211169;39;115773;-54
2021/07/21 03:50:08;;;;;;;;;;;;;;;25.48;57.23;101921.72;2205341;39;114614;-55
2021/07/21 03:51:40;;;;;;;;;;;;;;;25.48;56.77;101922.56;2211575;39;115970;-54
2021/07/21 03:53:13;;;;;;;;;;;;;;;25.48;57.04;101919.72;2210925;39;114955;-54
2021/07/21 03:54:46;;;;;;;;;;;;;;;25.49;56.98;101923.38;2210486;39;116250;-54
2021/07/21 03:56:21;;;;;;;;;;;;;;;25.48;57.31;101918.88;2210605;39;114843;-55
2021/07/21 03:57:53;;;;;;;;;;;;;;;25.48;57.09;101913.22;2209270;39;116162;-64
2021/07/21 03:59:26;;;;;;;;;;;;;;;25.47;56.96;101920.88;2212493;39;115446;-54
2021/07/21 04:00:59;;;;;;;;;;;;;;;25.48;57.25;101916.06;2210534;39;113879;-54
2021/07/21 04:02:31;;;;;;;;;;;;;;;25.48;57.30;101913.22;2216816;39;114017;-55
2021/07/21 04:04:04;;;;;;;;;;;;;;;25.48;57.32;101913.22;2212310;39;113921;-55
2021/07/21 04:05:36;;;;;;;;;;;;;;;25.48;57.06;101913.22;2213800;39;113937;-54
2021/07/21 04:07:11;;;;;;;;;;;;;;;25.46;57.04;101909.84;2210127;39;113821;-54
2021/07/21 04:08:44;;;;;;;;;;;;;;;25.48;57.32;101918.88;2210694;39;114328;-54
2021/07/21 04:10:16;;;;;;;;;;;;;;;25.48;57.06;101918.88;2210948;39;114395;-54
2021/07/21 04:11:49;;;;;;;;;;;;;;;25.48;57.42;101910.41;2208541;39;113761;-54
2021/07/21 04:13:22;;;;;;;;;;;;;;;25.47;57.08;101914.38;2210906;39;113789;-54
2021/07/21 04:14:56;;;;;;;;;;;;;;;25.46;57.34;101913.53;2208442;39;113818;-54
2021/07/21 04:16:30;;;;;;;;;;;;;;;25.47;57.12;101909.56;2208343;39;114054;-54
2021/07/21 04:18:02;;;;;;;;;;;;;;;25.47;57.18;101911.53;2209838;39;113916;-54
2021/07/21 04:19:35;;;;;;;;;;;;;;;25.47;57.52;101911.53;2210403;39;113787;-54
2021/07/21 04:21:08;;;;;;;;;;;;;;;25.45;57.52;101911.00;2207804;39;114142;-54
2021/07/21 04:22:40;;;;;;;;;;;;;;;25.45;57.08;101911.84;2213065;39;113835;-54
2021/07/21 04:24:13;;;;;;;;;;;;;;;25.46;57.36;101912.69;2209814;39;113930;-54
2021/07/21 04:25:45;;;;;;;;;;;;;;;25.46;57.56;101913.53;2210256;39;114922;-54
2021/07/21 04:27:17;;;;;;;;;;;;;;;25.45;57.51;101913.84;2210892;39;113915;-54
2021/07/21 04:28:50;;;;;;;;;;;;;;;25.45;57.77;101908.19;2211183;39;115474;-54
2021/07/21 04:30:22;;;;;;;;;;;;;;;25.45;57.63;101917.50;2210151;39;113942;-54
2021/07/21 04:31:54;;;;;;;;;;;;;;;25.46;57.72;101918.34;2210181;39;114195;-54
2021/07/21 04:33:26;;;;;;;;;;;;;;;25.45;57.41;101917.50;2208421;39;115112;-54
2021/07/21 04:34:58;;;;;;;;;;;;;;;25.45;57.47;101917.50;2210149;39;115205;-54
2021/07/21 04:36:31;;;;;;;;;;;;;;;25.45;57.91;101911.84;2211108;39;114792;-54
2021/07/21 04:38:03;;;;;;;;;;;;;;;25.45;57.88;101922.34;2210307;39;114295;-54
2021/07/21 04:39:35;;;;;;;;;;;;;;;25.45;57.85;101920.34;2208583;39;114926;-54
2021/07/21 04:41:08;;;;;;;;;;;;;;;25.45;57.70;101920.34;2209871;39;114804;-54
2021/07/21 04:42:42;;;;;;;;;;;;;;;25.45;57.76;101923.16;2209995;39;114771;-54
2021/07/21 04:44:14;;;;;;;;;;;;;;;25.45;57.66;101919.50;2208636;39;114384;-54
2021/07/21 04:45:47;;;;;;;;;;;;;;;25.44;57.70;101915.81;2208686;39;115796;-54
2021/07/21 04:47:20;;;;;;;;;;;;;;;25.44;57.42;101926.34;2210674;39;115629;-54
2021/07/21 04:48:52;;;;;;;;;;;;;;;25.44;57.49;101921.50;2211255;39;115590;-54
2021/07/21 04:50:24;;;;;;;;;;;;;;;25.43;57.95;101930.31;2209586;39;115552;-54
2021/07/21 04:52:00;;;;;;;;;;;;;;;25.43;57.84;101925.50;2210708;39;116111;-54
2021/07/21 04:53:32;;;;;;;;;;;;;;;25.44;57.58;101926.34;2210659;39;114604;-54
2021/07/21 04:55:05;;;;;;;;;;;;;;;25.42;57.53;101931.47;2210218;39;115386;-54
2021/07/21 04:56:37;;;;;;;;;;;;;;;25.41;57.95;101929.78;2210470;39;116010;-54
2021/07/21 04:58:09;;;;;;;;;;;;;;;25.41;57.63;101927.78;2210662;39;115779;-54
2021/07/21 04:59:41;;;;;;;;;;;;;;;25.44;57.66;101926.34;2210187;39;114623;-54
2021/07/21 05:01:13;;;;;;;;;;;;;;;25.44;57.81;101932.00;2210799;39;115311;-54
2021/07/21 05:02:45;;;;;;;;;;;;;;;25.43;57.96;101933.16;2209585;39;116065;-54
2021/07/21 05:04:18;;;;;;;;;;;;;;;25.44;57.58;101926.34;2208808;39;115697;-54
2021/07/21 05:05:50;;;;;;;;;;;;;;;25.43;57.50;101934.00;2213100;39;115613;-54
2021/07/21 05:07:22;;;;;;;;;;;;;;;25.41;57.59;101926.94;2209413;39;113704;-54
2021/07/21 05:08:53;;;;;;;;;;;;;;;25.40;57.65;101931.78;2210567;39;113696;-54
2021/07/21 05:10:25;;;;;;;;;;;;;;;25.39;57.61;101938.63;2209954;39;113714;-54
2021/07/21 05:11:57;;;;;;;;;;;;;;;25.39;58.10;101932.94;2206376;39;113729;-54
2021/07/21 05:13:30;;;;;;;;;;;;;;;25.40;58.02;101934.59;2210997;39;113721;-54
2021/07/21 05:15:02;;;;;;;;;;;;;;;25.43;58.02;101938.81;2211032;39;113804;-54
2021/07/21 05:16:35;;;;;;;;;;;;;;;25.42;58.00;101934.28;2206018;39;113938;-54
2021/07/21 05:18:07;;;;;;;;;;;;;;;25.42;57.97;101934.28;2208811;39;114026;-61
2021/07/21 05:19:39;;;;;;;;;;;;;;;25.41;57.70;101935.44;2210018;39;113931;-54
2021/07/21 05:21:11;;;;;;;;;;;;;;;25.40;58.17;101943.09;2207998;39;113676;-54
2021/07/21 05:22:46;;;;;;;;;;;;;;;25.38;57.63;101939.75;2210535;39;113874;-54
2021/07/21 05:24:18;;;;;;;;;;;;;;;25.38;57.89;101934.09;2210602;39;113720;-54
2021/07/21 05:25:50;;;;;;;;;;;;;;;25.38;57.75;101948.25;2211264;39;113689;-54
2021/07/21 05:27:22;;;;;;;;;;;;;;;25.39;58.25;101949.09;2214286;39;113769;-54
2021/07/21 05:28:54;;;;;;;;;;;;;;;25.41;57.73;101938.28;2206276;39;113872;-54
2021/07/21 05:30:26;;;;;;;;;;;;;;;25.42;57.79;101943.63;2210003;39;113938;-54
2021/07/21 05:31:58;;;;;;;;;;;;;;;25.41;58.13;101946.75;2209146;39;115004;-54
2021/07/21 05:33:31;;;;;;;;;;;;;;;25.41;58.26;101949.59;2208906;39;115482;-54
2021/07/21 05:35:04;;;;;;;;;;;;;;;25.40;58.13;101951.56;2211215;39;114700;-56
2021/07/21 05:36:37;;;;;;;;;;;;;;;25.41;57.81;101953.25;2217068;39;115235;-54
2021/07/21 05:38:12;;;;;;;;;;;;;;;25.43;58.18;101950.13;2210487;39;114161;-55
2021/07/21 05:39:44;;;;;;;;;;;;;;;25.42;57.85;101949.28;2214836;39;114755;-55
2021/07/21 05:41:16;;;;;;;;;;;;;;;25.43;57.75;101953.78;2213675;39;115231;-54
2021/07/21 05:42:49;;;;;;;;;;;;;;;25.42;57.83;101948.44;2211320;39;115375;-54
2021/07/21 05:44:20;;;;;;;;;;;;;;;25.41;57.80;101953.25;2211623;39;114976;-54
2021/07/21 05:45:52;;;;;;;;;;;;;;;25.41;57.91;101947.59;2211195;39;114941;-56
2021/07/21 05:47:25;;;;;;;;;;;;;;;25.43;58.24;101947.28;2210935;39;115198;-55
2021/07/21 05:48:57;;;;;;;;;;;;;;;25.42;58.05;101951.28;2214138;39;114963;-54
2021/07/21 05:50:29;;;;;;;;;;;;;;;25.42;57.82;101951.28;2208029;39;115162;-54
2021/07/21 05:52:02;;;;;;;;;;;;;;;25.42;57.87;101954.94;2211260;39;115255;-54
2021/07/21 05:53:34;;;;;;;;;;;;;;;25.41;58.32;101953.25;2211934;39;115870;-54
2021/07/21 05:55:06;;;;;;;;;;;;;;;25.42;57.88;101956.94;2211615;39;115531;-54
2021/07/21 05:56:39;;;;;;;;;;;;;;;25.43;58.32;101961.44;2211714;39;114545;-54
2021/07/21 05:58:14;;;;;;;;;;;;;;;25.42;57.93;101959.75;2211240;39;115595;-54
2021/07/21 05:59:46;;;;;;;;;;;;;;;25.43;58.20;101958.63;2200208;39;115936;-54
2021/07/21 06:01:18;;;;;;;;;;;;;;;25.42;57.76;101963.44;2206389;39;114526;-54
2021/07/21 06:02:50;;;;;;;;;;;;;;;25.42;58.13;101966.25;2207593;39;115467;-54
2021/07/21 06:04:22;;;;;;;;;;;;;;;25.43;58.18;101967.94;2208653;39;116075;-54
2021/07/21 06:05:54;;;;;;;;;;;;;;;25.42;57.93;101966.25;2211642;39;115490;-54
2021/07/21 06:07:26;;;;;;;;;;;;;;;25.43;58.29;101969.94;2210658;39;115485;-54
2021/07/21 06:08:58;;;;;;;;;;;;;;;25.42;58.34;101968.25;2210394;39;116499;-54
2021/07/21 06:10:30;;;;;;;;;;;;;;;25.42;58.21;101971.09;2210766;39;114435;-53
2021/07/21 06:12:03;;;;;;;;;;;;;;;25.43;57.87;101973.59;2212917;39;115876;-54
2021/07/21 06:13:35;;;;;;;;;;;;;;;25.43;58.27;101967.09;2211332;39;113838;-54
2021/07/21 06:15:07;;;;;;;;;;;;;;;25.43;58.00;101975.59;2211021;39;113607;-54
2021/07/21 06:16:40;;;;;;;;;;;;;;;25.44;57.96;101977.28;2209366;39;114045;-54
2021/07/21 06:18:13;;;;;;;;;;;;;;;25.43;58.38;101972.75;2210952;39;114002;-54
2021/07/21 06:19:45;;;;;;;;;;;;;;;25.42;58.44;101977.59;2211692;39;113797;-54
2021/07/21 06:21:17;;;;;;;;;;;;;;;25.44;58.25;101974.44;2210569;39;113811;-54
2021/07/21 06:22:49;;;;;;;;;;;;;;;25.43;58.30;101982.09;2211024;39;113640;-54
2021/07/21 06:24:21;;;;;;;;;;;;;;;25.43;58.41;101975.59;2216800;39;113993;-54
2021/07/21 06:25:53;;;;;;;;;;;;;;;25.43;58.09;101981.25;2210572;39;113701;-54
2021/07/21 06:27:25;;;;;;;;;;;;;;;25.44;58.49;101978.09;2208195;39;113877;-54
2021/07/21 06:28:57;;;;;;;;;;;;;;;25.45;58.26;101984.59;2209991;39;113747;-54
2021/07/21 06:30:29;;;;;;;;;;;;;;;25.44;58.33;101980.09;2210007;39;113572;-54
2021/07/21 06:32:01;;;;;;;;;;;;;;;25.44;58.11;101982.94;2209184;39;114178;-54
2021/07/21 06:33:33;;;;;;;;;;;;;;;25.44;58.01;101977.28;2209850;39;113918;-54
2021/07/21 06:35:06;;;;;;;;;;;;;;;25.45;57.99;101990.25;2209260;39;114967;-54
2021/07/21 06:36:38;;;;;;;;;;;;;;;25.45;58.30;101987.41;2210490;39;115020;-54
2021/07/21 06:38:10;;;;;;;;;;;;;;;25.44;58.11;101988.59;2214484;39;115359;-54
2021/07/21 06:39:42;;;;;;;;;;;;;;;25.45;58.37;101987.41;2204343;39;116026;-54
2021/07/21 06:41:14;;;;;;;;;;;;;;;25.43;58.59;101984.91;2203250;39;113880;-54
2021/07/21 06:42:46;;;;;;;;;;;;;;;25.44;58.16;101988.59;2211666;39;114874;-54
2021/07/21 06:44:18;;;;;;;;;;;;;;;25.45;58.22;101990.25;2210499;39;113857;-54
2021/07/21 06:45:50;;;;;;;;;;;;;;;25.44;58.77;101989.41;2209735;39;114828;-54
2021/07/21 06:47:22;;;;;;;;;;;;;;;25.44;58.44;101989.41;2210601;39;113820;-54
2021/07/21 06:48:54;;;;;;;;;;;;;;;25.42;59.05;101991.72;2216064;39;114914;-54
2021/07/21 06:50:28;;;;;;;;;;;;;;;25.36;59.21;101987.31;2207051;39;115540;-54
2021/07/21 06:52:04;;;;;;;;;;;;;;;25.37;59.15;101991.00;2211056;39;114881;-54
2021/07/21 06:53:36;;;;;;;;;;;;;;;25.36;59.18;101992.16;2216889;39;114310;-54
2021/07/21 06:55:09;;;;;;;;;;;;;;;25.33;59.22;101993.63;2215841;39;114940;-54
2021/07/21 06:56:42;;;;;;;;;;;;;;;25.31;58.88;101993.09;2211144;39;114798;-54
2021/07/21 06:58:14;;;;;;;;;;;;;;;25.33;58.54;101998.44;2210551;39;114655;-54
2021/07/21 06:59:46;;;;;;;;;;;;;;;25.28;58.65;101992.91;2211019;39;114704;-54
2021/07/21 07:01:19;;;;;;;;;;;;;;;25.31;58.77;102006.41;2211477;39;115727;-54
2021/07/21 07:02:52;;;;;;;;;;;;;;;25.36;59.03;101997.81;2211191;39;114922;-54
2021/07/21 07:04:24;;;;;;;;;;;;;;;25.35;58.99;102001.81;2210903;39;115427;-56
2021/07/21 07:05:57;;;;;;;;;;;;;;;25.31;59.02;102012.91;2210216;39;114626;-54
2021/07/21 07:07:29;;;;;;;;;;;;;;;25.31;58.86;102010.06;2211350;39;115753;-53
2021/07/21 07:09:01;;;;;;;;;;;;;;;25.29;58.75;102008.72;2210935;39;115250;-54
2021/07/21 07:10:33;;;;;;;;;;;;;;;25.29;58.77;102014.38;2210008;39;116420;-54
2021/07/21 07:12:05;;;;;;;;;;;;;;;25.26;58.66;102009.38;2206124;39;114973;-54
2021/07/21 07:13:38;;;;;;;;;;;;;;;25.27;58.73;102014.69;2206987;39;116092;-54
2021/07/21 07:15:18;;;;;;;;;;;;;;;25.23;58.89;102006.00;2206503;39;114704;-54
2021/07/21 07:17:10;;;;;;;;;;;;;;;25.23;58.83;102011.66;2218391;39;115622;-54
2021/07/21 07:18:42;;;;;;;;;;;;;;;25.23;59.11;102016.47;2205352;39;113915;-54
2021/07/21 07:20:14;;;;;;;;;;;;;;;25.22;59.78;102014.78;2210293;39;113668;-54
2021/07/21 07:21:46;;;;;;;;;;;;;;;25.22;60.43;102017.63;2210677;39;113939;-54
2021/07/21 07:23:18;;;;;;;;;;;;;;;25.22;60.00;102017.63;2208063;39;113951;-54
2021/07/21 07:25:04;;;;;;;;;;;;;;;25.21;60.56;102022.44;2208234;39;113660;-54
2021/07/21 07:26:54;;;;;;;;;;;;;;;25.21;59.63;102022.44;2203659;39;113686;-54
2021/07/21 07:29:04;;;;;;;;;;;;;;;25.22;59.08;102020.44;2207248;39;113867;-54
2021/07/21 07:30:36;;;;;;;;;;;;;;;25.20;59.38;102019.94;2206474;39;113743;-55
2021/07/21 07:32:25;;;;;;;;;;;;;;;25.21;59.35;102019.59;2209312;39;113999;-54
2021/07/21 07:34:04;;;;;;;;;;;;;;;25.21;59.63;102019.59;2211152;39;114195;-54
2021/07/21 07:35:39;;;;;;;;;;;;;;;25.22;60.35;102026.94;2211241;39;113761;-54
2021/07/21 07:37:12;;;;;;;;;;;;;;;25.21;60.27;102024.44;2209441;39;113675;-54
2021/07/21 07:38:44;;;;;;;;;;;;;;;25.21;60.31;102024.44;2211335;39;113953;-53
2021/07/21 07:40:17;;;;;;;;;;;;;;;25.17;61.14;102024.22;2203350;39;113854;-54
2021/07/21 07:41:50;;;;;;;;;;;;;;;25.19;60.47;102024.75;2211158;39;113653;-54
2021/07/21 07:43:22;;;;;;;;;;;;;;;25.17;60.16;102029.88;2208095;39;114199;-54
2021/07/21 07:44:55;;;;;;;;;;;;;;;25.17;60.23;102029.88;2210261;39;115491;-54
2021/07/21 07:46:27;;;;;;;;;;;;;;;25.20;60.25;102031.25;2211253;39;115259;-54
2021/07/21 07:48:01;;;;;;;;;;;;;;;25.22;60.35;102026.94;2210037;39;114941;-53
2021/07/21 07:49:33;;;;;;;;;;;;;;;25.31;59.85;102032.69;2209251;39;114304;-54
2021/07/21 07:51:06;;;;;;;;;;;;;;;25.33;59.91;102038.91;2210780;39;114807;-54
2021/07/21 07:52:38;;;;;;;;;;;;;;;25.34;60.17;102040.59;2211083;39;114479;-54
2021/07/21 07:54:10;;;;;;;;;;;;;;;25.38;59.77;102032.28;2211319;39;115168;-54
2021/07/21 07:55:42;;;;;;;;;;;;;;;25.40;59.83;102038.47;2211299;39;114875;-54
2021/07/21 07:57:14;;;;;;;;;;;;;;;25.40;59.27;102033.63;2211008;39;114927;-54
2021/07/21 07:58:46;;;;;;;;;;;;;;;25.40;59.65;102035.63;2211197;39;114908;-53
2021/07/21 08:00:19;;;;;;;;;;;;;;;25.41;59.61;102040.97;2211080;39;114831;-54